sensor_id;sensor_type;location;lat;lon;timestamp;temperature;humidity
83120;SHT31;73001;51.784;4.660;2024-01-25T00:01:42;9.50;75.46
83120;SHT31;73001;51.784;4.660;2024-01-25T00:04:07;9.46;75.59
83120;SHT31;73001;51.784;4.660;2024-01-25T00:06:34;9.39;75.40
83120;SHT31;73001;51.784;4.660;2024-01-25T00:09:00;9.38;75.85
83120;SHT31;73001;51.784;4.660;2024-01-25T00:11:26;9.29;75.55
83120;SHT31;73001;51.784;4.660;2024-01-25T00:13:51;9.32;75.68
83120;SHT31;73001;51.784;4.660;2024-01-25T00:16:17;9.28;75.61
83120;SHT31;73001;51.784;4.660;2024-01-25T00:18:42;9.21;75.59
83120;SHT31;73001;51.784;4.660;2024-01-25T00:21:08;9.21;75.86
83120;SHT31;73001;51.784;4.660;2024-01-25T00:23:33;9.21;76.14
83120;SHT31;73001;51.784;4.660;2024-01-25T00:25:59;9.14;76.34
83120;SHT31;73001;51.784;4.660;2024-01-25T00:28:25;9.14;76.57
83120;SHT31;73001;51.784;4.660;2024-01-25T00:30:51;9.11;76.62
83120;SHT31;73001;51.784;4.660;2024-01-25T00:33:17;9.08;76.49
83120;SHT31;73001;51.784;4.660;2024-01-25T00:35:43;9.04;76.54
83120;SHT31;73001;51.784;4.660;2024-01-25T00:38:09;9.03;76.66
83120;SHT31;73001;51.784;4.660;2024-01-25T00:40:35;9.05;76.73
83120;SHT31;73001;51.784;4.660;2024-01-25T00:43:00;9.01;76.86
83120;SHT31;73001;51.784;4.660;2024-01-25T00:45:26;9.00;76.54
83120;SHT31;73001;51.784;4.660;2024-01-25T00:47:52;8.98;76.48
83120;SHT31;73001;51.784;4.660;2024-01-25T00:50:19;8.89;76.43
83120;SHT31;73001;51.784;4.660;2024-01-25T00:52:47;8.84;76.55
83120;SHT31;73001;51.784;4.660;2024-01-25T00:55:14;8.81;76.69
83120;SHT31;73001;51.784;4.660;2024-01-25T00:57:40;8.83;76.66
83120;SHT31;73001;51.784;4.660;2024-01-25T01:00:08;8.83;76.53
83120;SHT31;73001;51.784;4.660;2024-01-25T01:02:43;8.83;76.58
83120;SHT31;73001;51.784;4.660;2024-01-25T01:05:10;8.80;76.78
83120;SHT31;73001;51.784;4.660;2024-01-25T01:07:36;8.75;76.99
83120;SHT31;73001;51.784;4.660;2024-01-25T01:10:02;8.70;77.21
83120;SHT31;73001;51.784;4.660;2024-01-25T01:12:29;8.66;77.09
83120;SHT31;73001;51.784;4.660;2024-01-25T01:14:55;8.63;77.03
83120;SHT31;73001;51.784;4.660;2024-01-25T01:17:21;8.60;77.23
83120;SHT31;73001;51.784;4.660;2024-01-25T01:19:47;8.57;77.29
83120;SHT31;73001;51.784;4.660;2024-01-25T01:22:12;8.50;77.27
83120;SHT31;73001;51.784;4.660;2024-01-25T01:24:38;8.49;77.12
83120;SHT31;73001;51.784;4.660;2024-01-25T01:27:03;8.47;77.10
83120;SHT31;73001;51.784;4.660;2024-01-25T01:29:29;8.46;77.28
83120;SHT31;73001;51.784;4.660;2024-01-25T01:31:54;8.46;77.18
83120;SHT31;73001;51.784;4.660;2024-01-25T01:34:20;8.40;77.10
83120;SHT31;73001;51.784;4.660;2024-01-25T01:36:45;8.33;76.85
83120;SHT31;73001;51.784;4.660;2024-01-25T01:39:11;8.35;77.62
83120;SHT31;73001;51.784;4.660;2024-01-25T01:41:37;8.25;77.64
83120;SHT31;73001;51.784;4.660;2024-01-25T01:44:02;8.22;77.53
83120;SHT31;73001;51.784;4.660;2024-01-25T01:46:33;8.19;77.45
83120;SHT31;73001;51.784;4.660;2024-01-25T01:49:01;8.22;77.29
83120;SHT31;73001;51.784;4.660;2024-01-25T01:51:27;8.16;77.04
83120;SHT31;73001;51.784;4.660;2024-01-25T01:53:54;8.15;77.00
83120;SHT31;73001;51.784;4.660;2024-01-25T01:56:22;8.06;77.17
83120;SHT31;73001;51.784;4.660;2024-01-25T01:58:49;8.01;77.42
83120;SHT31;73001;51.784;4.660;2024-01-25T02:01:15;7.96;77.40
83120;SHT31;73001;51.784;4.660;2024-01-25T02:03:40;7.91;77.49
83120;SHT31;73001;51.784;4.660;2024-01-25T02:06:06;7.82;77.18
83120;SHT31;73001;51.784;4.660;2024-01-25T02:08:32;7.81;77.16
83120;SHT31;73001;51.784;4.660;2024-01-25T02:10:58;7.74;77.31
83120;SHT31;73001;51.784;4.660;2024-01-25T02:13:24;7.71;77.18
83120;SHT31;73001;51.784;4.660;2024-01-25T02:15:49;7.74;77.40
83120;SHT31;73001;51.784;4.660;2024-01-25T02:18:15;7.61;77.35
83120;SHT31;73001;51.784;4.660;2024-01-25T02:20:41;7.55;77.35
83120;SHT31;73001;51.784;4.660;2024-01-25T02:23:06;7.51;77.54
83120;SHT31;73001;51.784;4.660;2024-01-25T02:25:32;7.55;77.28
83120;SHT31;73001;51.784;4.660;2024-01-25T02:27:57;7.47;77.20
83120;SHT31;73001;51.784;4.660;2024-01-25T02:30:23;7.37;77.03
83120;SHT31;73001;51.784;4.660;2024-01-25T02:32:49;7.30;77.00
83120;SHT31;73001;51.784;4.660;2024-01-25T02:35:14;7.20;77.46
83120;SHT31;73001;51.784;4.660;2024-01-25T02:37:40;7.19;77.57
83120;SHT31;73001;51.784;4.660;2024-01-25T02:40:06;7.16;77.77
83120;SHT31;73001;51.784;4.660;2024-01-25T02:42:31;7.23;78.09
83120;SHT31;73001;51.784;4.660;2024-01-25T02:44:57;7.26;78.46
83120;SHT31;73001;51.784;4.660;2024-01-25T02:47:22;7.30;78.74
83120;SHT31;73001;51.784;4.660;2024-01-25T02:49:48;7.27;78.48
83120;SHT31;73001;51.784;4.660;2024-01-25T02:52:13;7.26;78.25
83120;SHT31;73001;51.784;4.660;2024-01-25T02:54:39;7.21;78.06
83120;SHT31;73001;51.784;4.660;2024-01-25T02:57:05;7.21;77.96
83120;SHT31;73001;51.784;4.660;2024-01-25T02:59:31;7.24;78.17
83120;SHT31;73001;51.784;4.660;2024-01-25T03:01:57;7.17;78.14
83120;SHT31;73001;51.784;4.660;2024-01-25T03:04:22;7.12;77.99
83120;SHT31;73001;51.784;4.660;2024-01-25T03:06:48;7.06;77.82
83120;SHT31;73001;51.784;4.660;2024-01-25T03:09:14;6.99;77.82
83120;SHT31;73001;51.784;4.660;2024-01-25T03:11:40;6.92;77.69
83120;SHT31;73001;51.784;4.660;2024-01-25T03:14:05;6.89;77.52
83120;SHT31;73001;51.784;4.660;2024-01-25T03:16:31;6.86;77.51
83120;SHT31;73001;51.784;4.660;2024-01-25T03:18:57;6.76;77.21
83120;SHT31;73001;51.784;4.660;2024-01-25T03:21:22;6.69;77.40
83120;SHT31;73001;51.784;4.660;2024-01-25T03:23:48;6.69;77.69
83120;SHT31;73001;51.784;4.660;2024-01-25T03:26:13;6.62;77.76
83120;SHT31;73001;51.784;4.660;2024-01-25T03:28:39;6.48;78.24
83120;SHT31;73001;51.784;4.660;2024-01-25T03:31:06;6.38;78.44
83120;SHT31;73001;51.784;4.660;2024-01-25T03:33:31;6.34;78.42
83120;SHT31;73001;51.784;4.660;2024-01-25T03:36:04;6.25;78.00
83120;SHT31;73001;51.784;4.660;2024-01-25T03:38:30;6.25;77.86
83120;SHT31;73001;51.784;4.660;2024-01-25T03:40:56;6.24;77.81
83120;SHT31;73001;51.784;4.660;2024-01-25T03:43:23;6.11;77.72
83120;SHT31;73001;51.784;4.660;2024-01-25T03:45:49;6.11;78.24
83120;SHT31;73001;51.784;4.660;2024-01-25T03:48:15;6.10;78.61
83120;SHT31;73001;51.784;4.660;2024-01-25T03:50:41;6.11;79.15
83120;SHT31;73001;51.784;4.660;2024-01-25T03:53:06;6.25;79.73
83120;SHT31;73001;51.784;4.660;2024-01-25T03:55:32;6.30;79.95
83120;SHT31;73001;51.784;4.660;2024-01-25T03:57:58;6.31;79.73
83120;SHT31;73001;51.784;4.660;2024-01-25T04:00:24;6.31;79.82
83120;SHT31;73001;51.784;4.660;2024-01-25T04:02:50;6.40;79.74
83120;SHT31;73001;51.784;4.660;2024-01-25T04:05:16;6.42;79.54
83120;SHT31;73001;51.784;4.660;2024-01-25T04:07:41;6.44;79.35
83120;SHT31;73001;51.784;4.660;2024-01-25T04:10:07;6.38;78.99
83120;SHT31;73001;51.784;4.660;2024-01-25T04:12:32;6.35;79.13
83120;SHT31;73001;51.784;4.660;2024-01-25T04:14:58;6.38;79.04
83120;SHT31;73001;51.784;4.660;2024-01-25T04:17:24;6.35;79.04
83120;SHT31;73001;51.784;4.660;2024-01-25T04:19:50;6.24;79.07
83120;SHT31;73001;51.784;4.660;2024-01-25T04:22:16;6.13;79.30
83120;SHT31;73001;51.784;4.660;2024-01-25T04:24:41;6.10;79.25
83120;SHT31;73001;51.784;4.660;2024-01-25T04:27:08;6.03;78.90
83120;SHT31;73001;51.784;4.660;2024-01-25T04:29:34;5.94;78.69
83120;SHT31;73001;51.784;4.660;2024-01-25T04:31:59;5.90;78.82
83120;SHT31;73001;51.784;4.660;2024-01-25T04:34:25;5.80;79.14
83120;SHT31;73001;51.784;4.660;2024-01-25T04:36:50;5.74;79.35
83120;SHT31;73001;51.784;4.660;2024-01-25T04:39:16;5.69;79.11
83120;SHT31;73001;51.784;4.660;2024-01-25T04:41:42;5.70;78.93
83120;SHT31;73001;51.784;4.660;2024-01-25T04:44:07;5.70;78.85
83120;SHT31;73001;51.784;4.660;2024-01-25T04:46:33;5.67;78.87
83120;SHT31;73001;51.784;4.660;2024-01-25T04:49:02;5.62;78.63
83120;SHT31;73001;51.784;4.660;2024-01-25T04:51:28;5.62;79.14
83120;SHT31;73001;51.784;4.660;2024-01-25T04:53:54;5.65;79.26
83120;SHT31;73001;51.784;4.660;2024-01-25T04:56:19;5.69;79.13
83120;SHT31;73001;51.784;4.660;2024-01-25T04:58:45;5.66;79.03
83120;SHT31;73001;51.784;4.660;2024-01-25T05:01:11;5.63;78.94
83120;SHT31;73001;51.784;4.660;2024-01-25T05:03:37;5.59;79.30
83120;SHT31;73001;51.784;4.660;2024-01-25T05:06:03;5.65;79.84
83120;SHT31;73001;51.784;4.660;2024-01-25T05:08:28;5.65;80.06
83120;SHT31;73001;51.784;4.660;2024-01-25T05:10:54;5.70;80.27
83120;SHT31;73001;51.784;4.660;2024-01-25T05:13:20;5.77;80.24
83120;SHT31;73001;51.784;4.660;2024-01-25T05:15:45;5.83;80.10
83120;SHT31;73001;51.784;4.660;2024-01-25T05:18:11;5.89;80.21
83120;SHT31;73001;51.784;4.660;2024-01-25T05:20:36;5.87;79.93
83120;SHT31;73001;51.784;4.660;2024-01-25T05:23:03;5.86;79.92
83120;SHT31;73001;51.784;4.660;2024-01-25T05:25:30;5.80;79.68
83120;SHT31;73001;51.784;4.660;2024-01-25T05:27:56;5.71;79.49
83120;SHT31;73001;51.784;4.660;2024-01-25T05:30:23;5.67;79.22
83120;SHT31;73001;51.784;4.660;2024-01-25T05:32:48;5.55;78.74
83120;SHT31;73001;51.784;4.660;2024-01-25T05:35:15;5.50;78.74
83120;SHT31;73001;51.784;4.660;2024-01-25T05:37:41;5.48;78.93
83120;SHT31;73001;51.784;4.660;2024-01-25T05:40:07;5.52;80.39
83120;SHT31;73001;51.784;4.660;2024-01-25T05:42:32;5.43;80.46
83120;SHT31;73001;51.784;4.660;2024-01-25T05:44:58;5.22;80.62
83120;SHT31;73001;51.784;4.660;2024-01-25T05:47:24;5.17;80.82
83120;SHT31;73001;51.784;4.660;2024-01-25T05:49:49;5.14;80.62
83120;SHT31;73001;51.784;4.660;2024-01-25T05:52:16;5.15;80.35
83120;SHT31;73001;51.784;4.660;2024-01-25T05:54:41;5.11;79.98
83120;SHT31;73001;51.784;4.660;2024-01-25T05:57:07;5.11;80.02
83120;SHT31;73001;51.784;4.660;2024-01-25T05:59:32;5.12;79.99
83120;SHT31;73001;51.784;4.660;2024-01-25T06:01:58;5.15;80.17
83120;SHT31;73001;51.784;4.660;2024-01-25T06:04:23;5.22;80.39
83120;SHT31;73001;51.784;4.660;2024-01-25T06:06:49;5.28;81.04
83120;SHT31;73001;51.784;4.660;2024-01-25T06:09:14;5.35;81.07
83120;SHT31;73001;51.784;4.660;2024-01-25T06:11:41;5.42;80.79
83120;SHT31;73001;51.784;4.660;2024-01-25T06:14:07;5.46;80.82
83120;SHT31;73001;51.784;4.660;2024-01-25T06:16:33;5.52;80.54
83120;SHT31;73001;51.784;4.660;2024-01-25T06:18:58;5.59;80.65
83120;SHT31;73001;51.784;4.660;2024-01-25T06:21:25;5.53;79.56
83120;SHT31;73001;51.784;4.660;2024-01-25T06:23:51;5.24;79.14
83120;SHT31;73001;51.784;4.660;2024-01-25T06:26:16;4.99;79.94
83120;SHT31;73001;51.784;4.660;2024-01-25T06:28:42;4.80;80.61
83120;SHT31;73001;51.784;4.660;2024-01-25T06:31:07;4.70;81.46
83120;SHT31;73001;51.784;4.660;2024-01-25T06:33:33;4.76;81.49
83120;SHT31;73001;51.784;4.660;2024-01-25T06:36:00;4.76;81.16
83120;SHT31;73001;51.784;4.660;2024-01-25T06:38:25;4.78;80.90
83120;SHT31;73001;51.784;4.660;2024-01-25T06:40:51;4.83;80.61
83120;SHT31;73001;51.784;4.660;2024-01-25T06:43:16;4.84;80.51
83120;SHT31;73001;51.784;4.660;2024-01-25T06:45:42;4.91;80.47
83120;SHT31;73001;51.784;4.660;2024-01-25T06:48:08;4.87;80.41
83120;SHT31;73001;51.784;4.660;2024-01-25T06:50:36;4.98;80.20
83120;SHT31;73001;51.784;4.660;2024-01-25T06:53:02;4.99;80.01
83120;SHT31;73001;51.784;4.660;2024-01-25T06:55:28;5.02;79.96
83120;SHT31;73001;51.784;4.660;2024-01-25T06:57:53;5.08;80.04
83120;SHT31;73001;51.784;4.660;2024-01-25T07:00:19;5.12;80.56
83120;SHT31;73001;51.784;4.660;2024-01-25T07:02:46;5.18;80.80
83120;SHT31;73001;51.784;4.660;2024-01-25T07:05:13;5.22;80.77
83120;SHT31;73001;51.784;4.660;2024-01-25T07:07:38;5.14;80.83
83120;SHT31;73001;51.784;4.660;2024-01-25T07:10:06;5.05;80.86
83120;SHT31;73001;51.784;4.660;2024-01-25T07:12:31;5.07;81.00
83120;SHT31;73001;51.784;4.660;2024-01-25T07:14:58;5.08;80.89
83120;SHT31;73001;51.784;4.660;2024-01-25T07:17:23;5.08;80.63
83120;SHT31;73001;51.784;4.660;2024-01-25T07:19:49;5.12;80.89
83120;SHT31;73001;51.784;4.660;2024-01-25T07:22:14;5.19;81.38
83120;SHT31;73001;51.784;4.660;2024-01-25T07:24:40;5.32;81.55
83120;SHT31;73001;51.784;4.660;2024-01-25T07:27:06;5.48;81.23
83120;SHT31;73001;51.784;4.660;2024-01-25T07:29:31;5.56;81.55
83120;SHT31;73001;51.784;4.660;2024-01-25T07:31:57;5.53;81.09
83120;SHT31;73001;51.784;4.660;2024-01-25T07:34:22;5.45;81.07
83120;SHT31;73001;51.784;4.660;2024-01-25T07:36:48;5.40;81.04
83120;SHT31;73001;51.784;4.660;2024-01-25T07:39:13;5.28;80.91
83120;SHT31;73001;51.784;4.660;2024-01-25T07:41:39;5.24;81.48
83120;SHT31;73001;51.784;4.660;2024-01-25T07:44:05;5.21;82.42
83120;SHT31;73001;51.784;4.660;2024-01-25T07:46:31;5.31;82.15
83120;SHT31;73001;51.784;4.660;2024-01-25T07:48:56;5.39;81.90
83120;SHT31;73001;51.784;4.660;2024-01-25T07:51:22;5.45;81.73
83120;SHT31;73001;51.784;4.660;2024-01-25T07:53:47;5.50;81.66
83120;SHT31;73001;51.784;4.660;2024-01-25T07:56:13;5.65;81.67
83120;SHT31;73001;51.784;4.660;2024-01-25T07:58:39;5.76;81.76
83120;SHT31;73001;51.784;4.660;2024-01-25T08:01:06;5.89;81.82
83120;SHT31;73001;51.784;4.660;2024-01-25T08:03:32;5.96;81.57
83120;SHT31;73001;51.784;4.660;2024-01-25T08:05:59;6.01;81.52
83120;SHT31;73001;51.784;4.660;2024-01-25T08:08:24;6.11;81.64
83120;SHT31;73001;51.784;4.660;2024-01-25T08:10:50;6.22;81.58
83120;SHT31;73001;51.784;4.660;2024-01-25T08:13:15;6.28;81.52
83120;SHT31;73001;51.784;4.660;2024-01-25T08:15:41;6.35;81.45
83120;SHT31;73001;51.784;4.660;2024-01-25T08:18:06;6.35;81.06
83120;SHT31;73001;51.784;4.660;2024-01-25T08:20:32;6.41;81.02
83120;SHT31;73001;51.784;4.660;2024-01-25T08:22:57;6.48;80.98
83120;SHT31;73001;51.784;4.660;2024-01-25T08:25:23;6.56;80.92
83120;SHT31;73001;51.784;4.660;2024-01-25T08:27:49;6.64;80.98
83120;SHT31;73001;51.784;4.660;2024-01-25T08:30:15;6.71;80.98
83120;SHT31;73001;51.784;4.660;2024-01-25T08:32:40;6.72;80.82
83120;SHT31;73001;51.784;4.660;2024-01-25T08:35:06;6.69;80.96
83120;SHT31;73001;51.784;4.660;2024-01-25T08:37:31;6.72;81.12
83120;SHT31;73001;51.784;4.660;2024-01-25T08:39:58;6.78;81.00
83120;SHT31;73001;51.784;4.660;2024-01-25T08:42:23;6.88;80.90
83120;SHT31;73001;51.784;4.660;2024-01-25T08:44:48;6.97;80.91
83120;SHT31;73001;51.784;4.660;2024-01-25T08:47:17;7.04;80.88
83120;SHT31;73001;51.784;4.660;2024-01-25T08:49:43;7.16;80.77
83120;SHT31;73001;51.784;4.660;2024-01-25T08:52:09;7.24;80.79
83120;SHT31;73001;51.784;4.660;2024-01-25T08:54:35;7.31;80.70
83120;SHT31;73001;51.784;4.660;2024-01-25T08:57:03;7.43;80.60
83120;SHT31;73001;51.784;4.660;2024-01-25T08:59:29;7.51;80.47
83120;SHT31;73001;51.784;4.660;2024-01-25T09:01:57;7.58;80.33
83120;SHT31;73001;51.784;4.660;2024-01-25T09:04:23;7.68;80.22
83120;SHT31;73001;51.784;4.660;2024-01-25T09:06:48;7.77;80.23
83120;SHT31;73001;51.784;4.660;2024-01-25T09:09:14;7.86;80.03
83120;SHT31;73001;51.784;4.660;2024-01-25T09:11:39;7.98;79.93
83120;SHT31;73001;51.784;4.660;2024-01-25T09:14:05;8.05;79.67
83120;SHT31;73001;51.784;4.660;2024-01-25T09:16:30;8.12;79.22
83120;SHT31;73001;51.784;4.660;2024-01-25T09:18:56;8.13;79.55
83120;SHT31;73001;51.784;4.660;2024-01-25T09:21:21;8.17;79.56
83120;SHT31;73001;51.784;4.660;2024-01-25T09:23:47;8.25;79.40
83120;SHT31;73001;51.784;4.660;2024-01-25T09:26:12;8.30;79.28
83120;SHT31;73001;51.784;4.660;2024-01-25T09:28:38;8.40;79.28
83120;SHT31;73001;51.784;4.660;2024-01-25T09:31:03;8.46;79.10
83120;SHT31;73001;51.784;4.660;2024-01-25T09:33:29;8.52;78.82
83120;SHT31;73001;51.784;4.660;2024-01-25T09:35:55;8.59;78.57
83120;SHT31;73001;51.784;4.660;2024-01-25T09:38:21;8.61;78.63
83120;SHT31;73001;51.784;4.660;2024-01-25T09:40:47;8.67;78.40
83120;SHT31;73001;51.784;4.660;2024-01-25T09:43:14;8.71;78.30
83120;SHT31;73001;51.784;4.660;2024-01-25T09:45:41;8.73;78.23
83120;SHT31;73001;51.784;4.660;2024-01-25T09:48:07;8.73;78.45
83120;SHT31;73001;51.784;4.660;2024-01-25T09:50:32;8.80;78.36
83120;SHT31;73001;51.784;4.660;2024-01-25T09:52:59;8.84;78.38
83120;SHT31;73001;51.784;4.660;2024-01-25T09:55:26;8.88;78.36
83120;SHT31;73001;51.784;4.660;2024-01-25T09:57:55;8.95;78.21
83120;SHT31;73001;51.784;4.660;2024-01-25T10:00:22;9.04;78.21
83120;SHT31;73001;51.784;4.660;2024-01-25T10:02:48;9.07;77.98
83120;SHT31;73001;51.784;4.660;2024-01-25T10:05:18;9.08;78.05
83120;SHT31;73001;51.784;4.660;2024-01-25T10:07:45;9.04;77.96
83120;SHT31;73001;51.784;4.660;2024-01-25T10:10:12;8.97;78.25
83120;SHT31;73001;51.784;4.660;2024-01-25T10:12:40;8.83;78.91
83120;SHT31;73001;51.784;4.660;2024-01-25T10:15:07;8.81;79.17
83120;SHT31;73001;51.784;4.660;2024-01-25T10:17:33;8.84;79.37
83120;SHT31;73001;51.784;4.660;2024-01-25T10:19:58;8.85;79.36
83120;SHT31;73001;51.784;4.660;2024-01-25T10:22:24;8.88;79.38
83120;SHT31;73001;51.784;4.660;2024-01-25T10:24:50;8.95;79.20
83120;SHT31;73001;51.784;4.660;2024-01-25T10:27:16;9.04;79.12
83120;SHT31;73001;51.784;4.660;2024-01-25T10:29:42;9.11;79.05
83120;SHT31;73001;51.784;4.660;2024-01-25T10:32:08;9.15;78.90
83120;SHT31;73001;51.784;4.660;2024-01-25T10:34:36;9.19;78.75
83120;SHT31;73001;51.784;4.660;2024-01-25T10:37:06;9.25;78.51
83120;SHT31;73001;51.784;4.660;2024-01-25T10:39:33;9.36;78.50
83120;SHT31;73001;51.784;4.660;2024-01-25T10:41:59;9.42;78.27
83120;SHT31;73001;51.784;4.660;2024-01-25T10:44:25;9.50;78.01
83120;SHT31;73001;51.784;4.660;2024-01-25T10:46:51;9.60;77.79
83120;SHT31;73001;51.784;4.660;2024-01-25T10:49:18;9.65;77.73
83120;SHT31;73001;51.784;4.660;2024-01-25T10:51:45;9.70;77.56
83120;SHT31;73001;51.784;4.660;2024-01-25T10:54:13;9.77;77.57
83120;SHT31;73001;51.784;4.660;2024-01-25T10:56:46;9.79;77.55
83120;SHT31;73001;51.784;4.660;2024-01-25T10:59:13;9.83;77.39
83120;SHT31;73001;51.784;4.660;2024-01-25T11:01:45;9.82;77.44
83120;SHT31;73001;51.784;4.660;2024-01-25T11:04:16;9.86;77.56
83120;SHT31;73001;51.784;4.660;2024-01-25T11:06:46;9.89;77.50
83120;SHT31;73001;51.784;4.660;2024-01-25T11:09:18;9.90;77.66
83120;SHT31;73001;51.784;4.660;2024-01-25T11:11:46;9.87;77.68
83120;SHT31;73001;51.784;4.660;2024-01-25T11:14:14;9.83;77.89
83120;SHT31;73001;51.784;4.660;2024-01-25T11:16:42;9.83;78.20
83120;SHT31;73001;51.784;4.660;2024-01-25T11:19:17;9.93;77.96
83120;SHT31;73001;51.784;4.660;2024-01-25T11:21:50;9.97;77.75
83120;SHT31;73001;51.784;4.660;2024-01-25T11:24:20;10.03;77.65
83120;SHT31;73001;51.784;4.660;2024-01-25T11:26:48;10.13;77.33
83120;SHT31;73001;51.784;4.660;2024-01-25T11:29:16;10.18;77.03
83120;SHT31;73001;51.784;4.660;2024-01-25T11:31:46;10.24;76.88
83120;SHT31;73001;51.784;4.660;2024-01-25T11:34:13;10.28;76.56
83120;SHT31;73001;51.784;4.660;2024-01-25T11:36:41;10.31;76.61
83120;SHT31;73001;51.784;4.660;2024-01-25T11:39:09;10.34;76.43
83120;SHT31;73001;51.784;4.660;2024-01-25T11:41:35;10.37;76.46
83120;SHT31;73001;51.784;4.660;2024-01-25T11:44:03;10.31;76.71
83120;SHT31;73001;51.784;4.660;2024-01-25T11:46:31;10.36;76.70
83120;SHT31;73001;51.784;4.660;2024-01-25T11:49:00;10.36;76.91
83120;SHT31;73001;51.784;4.660;2024-01-25T11:51:25;10.36;76.86
83120;SHT31;73001;51.784;4.660;2024-01-25T11:53:51;10.44;76.42
83120;SHT31;73001;51.784;4.660;2024-01-25T11:56:24;10.49;75.98
83120;SHT31;73001;51.784;4.660;2024-01-25T11:58:51;10.48;76.34
83120;SHT31;73001;51.784;4.660;2024-01-25T12:01:19;10.51;76.22
83120;SHT31;73001;51.784;4.660;2024-01-25T12:03:45;10.59;75.87
83120;SHT31;73001;51.784;4.660;2024-01-25T12:06:12;10.59;76.11
83120;SHT31;73001;51.784;4.660;2024-01-25T12:08:37;10.62;75.90
83120;SHT31;73001;51.784;4.660;2024-01-25T12:11:10;10.73;75.80
83120;SHT31;73001;51.784;4.660;2024-01-25T12:13:39;10.83;75.73
83120;SHT31;73001;51.784;4.660;2024-01-25T12:16:06;10.89;75.33
83120;SHT31;73001;51.784;4.660;2024-01-25T12:18:32;10.98;75.32
83120;SHT31;73001;51.784;4.660;2024-01-25T12:21:02;11.03;74.79
83120;SHT31;73001;51.784;4.660;2024-01-25T12:23:38;11.08;74.62
83120;SHT31;73001;51.784;4.660;2024-01-25T12:26:10;11.09;74.76
83120;SHT31;73001;51.784;4.660;2024-01-25T12:28:36;11.12;74.69
83120;SHT31;73001;51.784;4.660;2024-01-25T12:31:04;11.23;74.55
83120;SHT31;73001;51.784;4.660;2024-01-25T12:33:31;11.26;74.57
83120;SHT31;73001;51.784;4.660;2024-01-25T12:35:56;11.31;74.43
83120;SHT31;73001;51.784;4.660;2024-01-25T12:38:22;11.31;74.40
83120;SHT31;73001;51.784;4.660;2024-01-25T12:40:49;11.37;74.39
83120;SHT31;73001;51.784;4.660;2024-01-25T12:43:18;11.37;74.35
83120;SHT31;73001;51.784;4.660;2024-01-25T12:45:44;11.34;74.44
83120;SHT31;73001;51.784;4.660;2024-01-25T12:48:10;11.36;74.42
83120;SHT31;73001;51.784;4.660;2024-01-25T12:50:36;11.39;74.50
83120;SHT31;73001;51.784;4.660;2024-01-25T12:53:03;11.41;74.53
83120;SHT31;73001;51.784;4.660;2024-01-25T12:55:30;11.44;74.45
83120;SHT31;73001;51.784;4.660;2024-01-25T12:57:59;11.46;74.45
83120;SHT31;73001;51.784;4.660;2024-01-25T13:00:24;11.46;74.47
83120;SHT31;73001;51.784;4.660;2024-01-25T13:02:50;11.44;74.68
83120;SHT31;73001;51.784;4.660;2024-01-25T13:05:16;11.47;74.70
83120;SHT31;73001;51.784;4.660;2024-01-25T13:07:41;11.54;74.73
83120;SHT31;73001;51.784;4.660;2024-01-25T13:10:08;11.53;74.87
83120;SHT31;73001;51.784;4.660;2024-01-25T13:12:36;11.56;74.76
83120;SHT31;73001;51.784;4.660;2024-01-25T13:15:02;11.57;74.77
83120;SHT31;73001;51.784;4.660;2024-01-25T13:17:27;11.59;74.82
83120;SHT31;73001;51.784;4.660;2024-01-25T13:19:53;11.61;74.75
83120;SHT31;73001;51.784;4.660;2024-01-25T13:22:19;11.59;74.94
83120;SHT31;73001;51.784;4.660;2024-01-25T13:24:46;11.50;75.15
83120;SHT31;73001;51.784;4.660;2024-01-25T13:27:12;11.49;75.26
83120;SHT31;73001;51.784;4.660;2024-01-25T13:29:38;11.54;75.15
83120;SHT31;73001;51.784;4.660;2024-01-25T13:32:03;11.49;75.51
83120;SHT31;73001;51.784;4.660;2024-01-25T13:34:29;11.46;75.80
83120;SHT31;73001;51.784;4.660;2024-01-25T13:36:55;11.51;76.14
83120;SHT31;73001;51.784;4.660;2024-01-25T13:39:20;11.50;76.27
83120;SHT31;73001;51.784;4.660;2024-01-25T13:41:47;11.50;76.62
83120;SHT31;73001;51.784;4.660;2024-01-25T13:44:16;11.49;76.47
83120;SHT31;73001;51.784;4.660;2024-01-25T13:46:42;11.46;76.79
83120;SHT31;73001;51.784;4.660;2024-01-25T13:49:07;11.47;76.78
83120;SHT31;73001;51.784;4.660;2024-01-25T13:51:33;11.40;76.80
83120;SHT31;73001;51.784;4.660;2024-01-25T13:53:58;11.47;76.95
83120;SHT31;73001;51.784;4.660;2024-01-25T13:56:24;11.41;76.95
83120;SHT31;73001;51.784;4.660;2024-01-25T13:58:49;11.37;77.20
83120;SHT31;73001;51.784;4.660;2024-01-25T14:01:15;11.37;77.29
83120;SHT31;73001;51.784;4.660;2024-01-25T14:03:40;11.33;77.37
83120;SHT31;73001;51.784;4.660;2024-01-25T14:06:06;11.31;77.81
83120;SHT31;73001;51.784;4.660;2024-01-25T14:08:35;11.24;77.74
83120;SHT31;73001;51.784;4.660;2024-01-25T14:11:01;11.24;77.75
83120;SHT31;73001;51.784;4.660;2024-01-25T14:13:27;11.23;78.09
83120;SHT31;73001;51.784;4.660;2024-01-25T14:15:52;11.23;77.96
83120;SHT31;73001;51.784;4.660;2024-01-25T14:18:18;11.20;78.23
83120;SHT31;73001;51.784;4.660;2024-01-25T14:20:43;11.22;78.20
83120;SHT31;73001;51.784;4.660;2024-01-25T14:23:09;11.20;78.61
83120;SHT31;73001;51.784;4.660;2024-01-25T14:25:34;11.19;78.60
83120;SHT31;73001;51.784;4.660;2024-01-25T14:28:00;11.12;78.51
83120;SHT31;73001;51.784;4.660;2024-01-25T14:30:25;11.12;78.55
83120;SHT31;73001;51.784;4.660;2024-01-25T14:32:51;11.13;78.52
83120;SHT31;73001;51.784;4.660;2024-01-25T14:35:16;11.19;78.39
83120;SHT31;73001;51.784;4.660;2024-01-25T14:37:42;11.16;78.33
83120;SHT31;73001;51.784;4.660;2024-01-25T14:40:07;11.15;78.28
83120;SHT31;73001;51.784;4.660;2024-01-25T14:42:33;11.09;78.39
83120;SHT31;73001;51.784;4.660;2024-01-25T14:44:58;11.09;78.45
83120;SHT31;73001;51.784;4.660;2024-01-25T14:47:24;11.09;78.55
83120;SHT31;73001;51.784;4.660;2024-01-25T14:49:50;11.06;78.68
83120;SHT31;73001;51.784;4.660;2024-01-25T14:52:17;11.02;78.66
83120;SHT31;73001;51.784;4.660;2024-01-25T14:54:43;10.98;78.72
83120;SHT31;73001;51.784;4.660;2024-01-25T14:57:09;10.92;78.79
83120;SHT31;73001;51.784;4.660;2024-01-25T14:59:35;10.99;78.68
83120;SHT31;73001;51.784;4.660;2024-01-25T15:02:00;10.95;78.65
83120;SHT31;73001;51.784;4.660;2024-01-25T15:04:26;10.93;78.67
83120;SHT31;73001;51.784;4.660;2024-01-25T15:06:55;10.91;79.04
83120;SHT31;73001;51.784;4.660;2024-01-25T15:09:20;10.80;79.07
83120;SHT31;73001;51.784;4.660;2024-01-25T15:11:46;10.76;79.29
83120;SHT31;73001;51.784;4.660;2024-01-25T15:14:13;10.75;79.44
83120;SHT31;73001;51.784;4.660;2024-01-25T15:16:39;10.73;79.49
83120;SHT31;73001;51.784;4.660;2024-01-25T15:19:05;10.69;79.55
83120;SHT31;73001;51.784;4.660;2024-01-25T15:21:31;10.71;79.74
83120;SHT31;73001;51.784;4.660;2024-01-25T15:23:56;10.71;79.71
83120;SHT31;73001;51.784;4.660;2024-01-25T15:26:22;10.67;79.70
83120;SHT31;73001;51.784;4.660;2024-01-25T15:28:47;10.64;79.82
83120;SHT31;73001;51.784;4.660;2024-01-25T15:31:13;10.59;80.17
83120;SHT31;73001;51.784;4.660;2024-01-25T15:33:40;10.54;80.38
83120;SHT31;73001;51.784;4.660;2024-01-25T15:36:05;10.51;80.50